Time;durP1;ratioP1;P1;durP2;ratioP2;P2;SDS_P1;SDS_P2;PMS_P1;PMS_P2;Temp;Humidity;BMP_temperature;BMP_pressure;BME280_temperature;BME280_humidity;BME280_pressure;Samples;Min_cycle;Max_cycle;Signal;HPM_P1;HPM_P2
2021/11/03 00:01:32;;;;;;;2.33;2.13;;;17.80;90.10;;;21.72;43.91;93429.59;6101671;19;20100;-66
2021/11/03 00:03:34;;;;;;;1.80;1.70;;;17.70;90.10;;;21.73;43.92;93430.38;6101247;19;20645;-66
2021/11/03 00:05:45;;;;;;;1.92;1.83;;;17.80;90.10;;;21.73;43.81;93430.38;6098585;19;20051;-66
2021/11/03 00:07:46;;;;;;;2.08;1.90;;;17.80;90.10;;;21.73;43.83;93435.81;6102796;19;20030;-66
2021/11/03 00:09:47;;;;;;;1.83;1.65;;;17.80;90.00;;;21.73;44.21;93430.38;6096724;19;20446;-67
2021/11/03 00:11:48;;;;;;;2.38;2.20;;;17.80;90.00;;;21.73;43.92;93428.44;6104976;19;20359;-67
2021/11/03 00:13:49;;;;;;;2.03;1.90;;;17.80;90.00;;;21.73;43.90;93419.53;6103059;19;20002;-66
2021/11/03 00:15:52;;;;;;;2.53;2.33;;;17.80;90.00;;;21.73;43.74;93414.88;6100541;19;20022;-66
2021/11/03 00:17:53;;;;;;;1.92;1.83;;;17.80;90.00;;;21.73;44.14;93408.69;6102651;19;20074;-67
2021/11/03 00:19:54;;;;;;;1.90;1.80;;;17.80;89.90;;;21.74;44.02;93402.09;6055620;19;20019;-68
2021/11/03 00:21:55;;;;;;;2.00;1.80;;;17.80;89.90;;;21.75;43.98;93392.81;6029043;19;20014;-68
2021/11/03 00:23:56;;;;;;;2.45;2.25;;;17.80;89.90;;;21.76;43.77;93383.53;6030276;19;20003;-64
2021/11/03 00:25:57;;;;;;;2.22;1.95;;;17.80;89.80;;;21.78;43.90;93381.25;6035116;19;20021;-63
2021/11/03 00:27:58;;;;;;;2.50;2.28;;;17.80;89.80;;;21.78;44.07;93378.53;6039135;19;20021;-64
2021/11/03 00:29:59;;;;;;;2.28;2.08;;;17.80;89.80;;;21.77;43.61;93377.75;6012085;19;20014;-63
2021/11/03 00:32:00;;;;;;;2.28;2.05;;;17.80;89.80;;;21.79;43.51;93374.69;6015365;19;20131;-64
2021/11/03 00:34:00;;;;;;;3.10;2.15;;;17.80;89.70;;;21.80;43.89;93370.81;6019019;19;20085;-64
2021/11/03 00:36:02;;;;;;;2.33;2.13;;;17.80;89.60;;;21.80;43.35;93362.69;6046925;19;20363;-64
2021/11/03 00:38:03;;;;;;;1.98;1.88;;;17.80;89.70;;;21.79;43.66;93358.41;6049409;19;21584;-64
2021/11/03 00:40:05;;;;;;;2.38;2.17;;;17.80;89.60;;;21.79;43.88;93361.13;6052322;19;20014;-64
2021/11/03 00:42:07;;;;;;;2.03;1.92;;;17.80;89.60;;;21.78;43.89;93354.13;6048420;19;20105;-65
2021/11/03 00:44:08;;;;;;;2.75;2.55;;;17.80;89.50;;;21.79;43.76;93352.97;6018831;19;20014;-63
2021/11/03 00:46:09;;;;;;;2.13;1.92;;;17.80;89.50;;;21.78;43.42;93354.13;6064829;19;20007;-65
2021/11/03 00:48:10;;;;;;;2.00;1.90;;;17.80;89.50;;;21.77;43.90;93355.28;6062158;19;20007;-62
2021/11/03 00:50:12;;;;;;;2.33;2.13;;;17.80;89.50;;;21.76;43.62;93342.84;6043429;19;20149;-63
2021/11/03 00:52:14;;;;;;;1.98;1.88;;;17.80;89.50;;;21.75;43.35;93335.88;6042335;19;20420;-64
2021/11/03 00:54:15;;;;;;;4.90;2.10;;;17.80;89.40;;;21.75;43.59;93338.56;6040206;19;20014;-63
2021/11/03 00:56:17;;;;;;;2.33;2.15;;;17.80;90.00;;;21.74;43.72;93339.72;6043281;19;20015;-64
2021/11/03 00:58:18;;;;;;;2.10;1.92;;;17.70;89.40;;;21.73;43.77;93333.50;6036197;19;20006;-64
2021/11/03 01:00:20;;;;;;;2.13;1.75;;;17.70;89.30;;;21.72;43.40;93323.81;6019905;19;20018;-64
2021/11/03 01:02:22;;;;;;;2.10;1.90;;;17.80;89.40;;;21.71;43.74;93319.53;6049872;19;20051;-64
2021/11/03 01:04:25;;;;;;;2.00;1.90;;;17.70;89.30;;;21.72;43.41;93317.59;6046141;19;20062;-64
2021/11/03 01:06:27;;;;;;;2.28;2.17;;;17.70;89.30;;;21.72;43.40;93314.91;6012608;19;20005;-64
2021/11/03 01:08:27;;;;;;;1.92;1.75;;;17.70;89.30;;;21.71;43.76;93314.13;6021142;19;20914;-63
2021/11/03 01:10:29;;;;;;;1.90;1.80;;;17.70;89.30;;;21.70;43.31;93303.63;6024092;19;20010;-64
2021/11/03 01:12:29;;;;;;;1.73;1.63;;;17.70;89.20;;;21.70;43.54;93306.34;6053777;19;20154;-64
2021/11/03 01:14:30;;;;;;;1.85;1.75;;;17.70;89.20;;;21.70;43.33;93306.34;6016369;19;20048;-63
2021/11/03 01:16:32;;;;;;;1.80;1.70;;;17.70;89.20;;;21.69;43.66;93299.34;6033803;19;20018;-63
2021/11/03 01:18:33;;;;;;;2.30;1.92;;;17.70;89.20;;;21.66;43.38;93309.00;6053200;19;20006;-63
2021/11/03 01:20:36;;;;;;;1.67;1.58;;;17.70;89.20;;;21.66;43.92;93311.72;6045720;19;21085;-64
2021/11/03 01:22:38;;;;;;;1.80;1.65;;;17.70;89.20;;;21.66;43.50;93316.34;6046442;19;20002;-63
2021/11/03 01:24:39;;;;;;;1.88;1.70;;;17.70;89.20;;;21.65;43.63;93321.00;6054374;19;20018;-63
2021/11/03 01:26:39;;;;;;;1.73;1.63;;;17.70;89.20;;;21.64;43.43;93324.84;6036319;19;20478;-64
2021/11/03 01:28:41;;;;;;;1.67;1.58;;;17.70;89.20;;;21.63;43.59;93317.06;6025214;19;20086;-64
2021/11/03 01:30:44;;;;;;;1.70;1.60;;;17.70;89.10;;;21.63;43.70;93317.06;5993699;19;20058;-65
2021/11/03 01:32:46;;;;;;;1.75;1.65;;;17.70;89.10;;;21.62;43.76;93305.44;6062369;19;20019;-66
2021/11/03 01:34:48;;;;;;;1.58;1.42;;;17.70;89.10;;;21.62;43.81;93312.81;6099189;19;20367;-66
2021/11/03 01:36:49;;;;;;;1.70;1.60;;;17.70;89.20;;;21.60;43.89;93299.56;6094604;19;20015;-66
2021/11/03 01:38:50;;;;;;;1.92;1.83;;;17.70;89.10;;;21.58;43.40;93305.38;6084720;19;20035;-66
2021/11/03 01:40:52;;;;;;;1.65;1.55;;;17.60;88.90;;;21.58;43.46;93304.59;6090836;19;20010;-66
2021/11/03 01:42:53;;;;;;;1.67;1.58;;;17.70;89.10;;;21.57;43.89;93303.81;6094350;19;20118;-65
2021/11/03 01:44:54;;;;;;;1.52;1.42;;;17.60;89.00;;;21.57;43.79;93303.81;6096067;19;20014;-66
2021/11/03 01:48:11;;;;;;;1.75;1.65;;;17.60;89.00;;;21.58;43.37;93294.53;6096946;19;20022;-66
2021/11/03 01:50:41;;;;;;;1.60;1.40;;;17.60;89.10;;;21.54;43.65;93295.59;6092754;19;20129;-65
2021/11/03 01:52:42;;;;;;;1.33;1.23;;;17.60;89.00;;;21.53;43.94;93291.34;6079530;19;20074;-66
2021/11/03 01:54:51;;;;;;;1.70;1.60;;;17.70;89.20;;;21.54;43.65;93285.53;6084303;19;20015;-65
2021/11/03 01:56:58;;;;;;;1.38;1.27;;;17.70;89.20;;;21.55;43.80;93284.41;6037183;19;20022;-66
2021/11/03 01:59:19;;;;;;;1.38;1.27;;;17.70;89.10;;;21.57;43.68;93281.31;6015534;19;20148;-65
2021/11/03 02:01:21;;;;;;;1.52;1.42;;;17.70;89.10;;;21.58;43.85;93278.25;6031521;19;20011;-65
2021/11/03 02:03:27;;;;;;;1.63;1.52;;;17.70;89.20;;;21.58;43.83;93278.25;6027599;19;20033;-66
2021/11/03 02:05:28;;;;;;;1.58;1.27;;;17.70;89.20;;;21.59;43.56;93268.97;6013284;19;20018;-65
2021/11/03 02:07:31;;;;;;;1.70;1.50;;;17.70;89.00;;;21.61;43.73;93262.41;6007866;19;20045;-66
2021/11/03 02:09:33;;;;;;;1.50;1.40;;;17.70;89.10;;;21.62;43.68;93266.69;5998748;19;20021;-66
2021/11/03 02:11:34;;;;;;;2.83;1.50;;;17.70;89.00;;;21.63;43.56;93254.72;6012247;19;21148;-66
2021/11/03 02:13:37;;;;;;;1.35;1.20;;;17.70;89.00;;;21.63;43.72;93244.66;6009765;19;20002;-65
2021/11/03 02:15:40;;;;;;;1.27;1.17;;;17.70;89.00;;;21.63;43.56;93238.44;6021956;19;20050;-64
2021/11/03 02:17:43;;;;;;;1.38;1.27;;;17.70;88.90;;;21.64;43.91;93232.66;6026068;19;20021;-64
2021/11/03 02:19:45;;;;;;;1.03;1.03;;;17.60;88.80;;;21.63;43.19;93235.72;6008995;19;20522;-64
2021/11/03 02:22:18;;;;;;;1.42;1.33;;;17.60;88.80;;;21.63;43.45;93233.00;6013414;19;20006;-65
2021/11/03 02:24:28;;;;;;;1.45;1.35;;;17.70;88.80;;;21.63;43.41;93241.16;5993466;19;20013;-65
2021/11/03 02:26:36;;;;;;;1.27;1.17;;;17.70;88.90;;;21.63;43.28;93239.22;5972714;19;20698;-65
2021/11/03 02:28:42;;;;;;;1.30;1.20;;;17.70;88.80;;;21.64;43.37;93231.88;6017318;19;20010;-63
2021/11/03 02:30:42;;;;;;;1.30;1.20;;;17.60;88.80;;;21.64;43.69;93229.16;6015349;19;20607;-64
2021/11/03 02:32:45;;;;;;;1.05;1.05;;;17.60;88.70;;;21.63;43.39;93219.44;6029228;19;20019;-64
2021/11/03 02:34:47;;;;;;;1.10;1.00;;;17.60;88.70;;;21.62;43.73;93215.97;6054373;19;20026;-64
2021/11/03 02:37:01;;;;;;;1.40;1.30;;;17.60;88.80;;;21.62;43.22;93218.66;6018064;19;20010;-63
2021/11/03 02:39:07;;;;;;;1.42;1.27;;;17.60;88.70;;;21.61;43.65;93222.50;6009170;19;20507;-63
2021/11/03 02:41:15;;;;;;;1.30;1.20;;;17.60;88.80;;;21.58;43.54;93224.03;6076693;19;20020;-63
2021/11/03 02:43:42;;;;;;;1.40;1.30;;;17.60;88.70;;;21.56;43.43;93220.88;6101095;19;20015;-63
2021/11/03 02:45:50;;;;;;;1.38;1.17;;;17.60;88.60;;;;;;6105729;19;20014;-63
2021/11/03 02:47:52;;;;;;;0.90;0.90;;;17.60;88.70;;;21.52;43.29;93203.78;6106985;19;20018;-62
2021/11/03 02:49:54;;;;;;;1.20;1.10;;;17.60;88.50;;;21.52;43.64;93213.84;6107690;19;20038;-66
2021/11/03 02:51:56;;;;;;;2.25;1.10;;;17.60;88.60;;;21.52;43.56;93217.34;6104759;19;20002;-67
2021/11/03 02:54:12;;;;;;;1.10;1.10;;;17.60;88.60;;;21.50;43.55;93211.50;6103473;19;20014;-67
2021/11/03 02:56:24;;;;;;;1.10;1.00;;;17.60;88.50;;;21.50;43.79;93206.09;6105448;19;20015;-66
2021/11/03 02:58:25;;;;;;;1.25;1.15;;;17.60;89.20;;;21.47;43.77;93193.25;6105771;19;20066;-66
2021/11/03 03:00:26;;;;;;;1.05;0.95;;;17.60;88.50;;;21.47;43.74;93189.75;6103780;19;20010;-67
2021/11/03 03:02:28;;;;;;;1.20;1.10;;;17.60;88.60;;;21.46;43.44;93194.41;6100938;19;20015;-66
2021/11/03 03:04:35;;;;;;;1.33;1.20;;;17.60;88.50;;;21.46;43.61;93194.41;6106509;19;20043;-67
2021/11/03 03:06:38;;;;;;;2.63;1.33;;;17.60;88.50;;;21.46;43.22;93177.34;6102540;19;20086;-67
2021/11/03 03:08:40;;;;;;;1.23;1.13;;;17.60;88.50;;;21.45;43.79;93178.50;6103277;19;20027;-67
2021/11/03 03:10:41;;;;;;;0.90;0.90;;;17.60;88.40;;;21.44;43.42;93172.31;6103235;19;20600;-67
2021/11/03 03:12:45;;;;;;;1.00;0.90;;;17.50;88.30;;;21.43;43.37;93173.44;6103124;19;20058;-67
2021/11/03 03:14:49;;;;;;;1.13;1.02;;;17.50;88.40;;;21.44;43.54;93172.31;6104075;19;20037;-66
2021/11/03 03:16:52;;;;;;;0.80;0.80;;;17.50;88.50;;;21.44;43.57;93169.59;6101960;19;20214;-67
2021/11/03 03:18:54;;;;;;;0.90;0.90;;;17.50;88.50;;;21.43;43.12;93173.44;6102333;19;20031;-67
2021/11/03 03:20:55;;;;;;;1.20;1.05;;;17.50;88.50;;;21.44;43.32;93166.88;6102740;19;20019;-66
2021/11/03 03:22:56;;;;;;;1.73;0.98;;;17.60;88.50;;;21.44;43.61;93164.16;6087684;19;20017;-65
2021/11/03 03:24:58;;;;;;;1.00;1.00;;;17.60;88.50;;;21.45;43.30;93154.09;6083092;19;20106;-66
2021/11/03 03:27:02;;;;;;;1.30;0.98;;;17.50;88.50;;;21.44;43.31;93137.06;6090664;19;20062;-66
2021/11/03 03:29:05;;;;;;;0.95;0.90;;;17.60;88.50;;;21.46;43.57;93139.41;6008802;19;20011;-66
2021/11/03 03:31:08;;;;;;;1.27;1.10;;;17.60;88.50;;;21.47;43.42;93138.25;6004016;19;20011;-65
2021/11/03 03:33:09;;;;;;;;;;;17.60;88.50;;;21.48;43.28;93146.03;5995105;19;20021;-65
2021/11/03 03:35:10;;;;;;;0.98;0.90;;;17.60;88.50;;;21.49;43.73;93139.44;6024844;19;21027;-66
2021/11/03 03:37:12;;;;;;;0.98;0.90;;;17.50;88.50;;;21.50;43.58;93134.81;6017624;19;20036;-65
2021/11/03 03:39:18;;;;;;;0.93;0.93;;;17.60;88.50;;;21.51;43.45;93139.09;5993238;19;20010;-66
2021/11/03 03:41:22;;;;;;;0.90;0.88;;;17.60;88.60;;;21.51;43.13;93142.56;6010291;19;20025;-66
2021/11/03 03:43:22;;;;;;;1.10;1.00;;;17.60;88.50;;;21.51;43.40;93145.28;6010409;19;20378;-65
2021/11/03 03:45:24;;;;;;;1.08;0.98;;;17.60;88.50;;;21.52;43.42;93136.00;6019369;19;20011;-65
2021/11/03 03:47:25;;;;;;;0.80;0.80;;;17.50;88.40;;;21.51;43.42;93142.56;6021836;19;20018;-66
2021/11/03 03:49:30;;;;;;;1.10;1.00;;;17.60;87.90;;;21.51;43.12;93142.56;6031638;19;20006;-65
2021/11/03 03:51:31;;;;;;;1.40;1.00;;;17.60;86.70;;;21.52;42.70;93154.19;6025389;19;20097;-65
2021/11/03 03:53:33;;;;;;;0.90;0.90;;;17.60;85.80;;;21.52;42.40;93156.91;6044117;19;20015;-66
2021/11/03 03:55:34;;;;;;;1.73;0.80;;;17.60;84.90;;;21.51;42.25;93149.94;6068312;19;20021;-66
2021/11/03 03:57:36;;;;;;;0.75;0.73;;;17.60;84.40;;;21.51;42.56;93158.06;6052156;19;20035;-65
2021/11/03 03:59:38;;;;;;;0.93;0.83;;;17.60;84.00;;;21.49;42.59;93155.72;6069482;19;20031;-69
2021/11/03 04:01:39;;;;;;;0.80;0.80;;;17.60;83.90;;;21.49;42.17;93154.94;6106061;19;20022;-66
2021/11/03 04:03:40;;;;;;;1.33;1.00;;;17.60;83.80;;;21.48;42.17;93156.88;6103709;19;20466;-65
2021/11/03 04:05:44;;;;;;;0.77;0.77;;;17.60;84.10;;;21.48;42.35;93164.22;6107665;19;20017;-66
2021/11/03 04:07:46;;;;;;;1.00;0.90;;;17.60;84.10;;;21.46;42.39;93159.16;6106291;19;20019;-67
2021/11/03 04:09:47;;;;;;;0.80;0.75;;;17.50;84.10;;;21.46;42.67;93156.44;6103323;19;20010;-65
2021/11/03 04:11:48;;;;;;;0.73;0.73;;;17.60;84.40;;;21.46;42.67;93158.38;6102912;19;20752;-65
2021/11/03 04:13:53;;;;;;;0.70;0.70;;;17.50;84.60;;;21.45;42.33;93149.47;6100405;19;20506;-66
2021/11/03 04:15:57;;;;;;;0.90;0.90;;;17.50;84.90;;;21.44;42.91;93147.91;6103871;19;20055;-65
2021/11/03 04:17:58;;;;;;;0.82;0.77;;;17.50;85.10;;;21.44;42.53;93150.63;6109017;19;20474;-65
2021/11/03 04:20:04;;;;;;;0.80;0.80;;;17.50;85.40;;;21.44;42.71;93141.69;6110086;19;20043;-65
2021/11/03 04:22:05;;;;;;;0.85;0.68;;;17.50;85.70;;;21.42;42.51;93133.94;6106159;19;20013;-66
2021/11/03 04:24:15;;;;;;;0.60;0.60;;;17.50;85.60;;;21.42;43.08;93138.56;6105521;19;20431;-66
2021/11/03 04:26:30;;;;;;;0.95;0.70;;;17.50;85.70;;;21.40;42.86;93147.06;6103467;19;20023;-66
2021/11/03 04:28:34;;;;;;;0.80;0.80;;;17.50;86.00;;;21.39;42.93;93140.09;6104758;19;20013;-66
2021/11/03 04:30:36;;;;;;;0.70;0.70;;;17.50;86.10;;;21.39;43.24;93133.88;6108169;19;20724;-66
2021/11/03 04:32:38;;;;;;;0.65;0.65;;;17.50;86.30;;;21.37;43.05;93120.69;6111544;19;20026;-65
2021/11/03 04:34:39;;;;;;;2.05;0.80;;;17.50;86.50;;;21.36;43.28;93131.91;6112623;19;20482;-65
2021/11/03 04:36:40;;;;;;;0.65;0.60;;;17.50;86.50;;;21.36;43.07;93129.97;6100217;19;22488;-67
2021/11/03 04:38:41;;;;;;;0.90;0.90;;;17.50;86.60;;;21.34;43.21;93116.00;6105290;19;20010;-66
2021/11/03 04:40:42;;;;;;;0.80;0.70;;;17.40;86.60;;;21.34;42.89;93110.59;6111853;19;20025;-65
2021/11/03 04:42:45;;;;;;;0.80;0.80;;;17.40;86.70;;;21.34;42.82;93105.16;6110296;19;20378;-66
2021/11/03 04:44:46;;;;;;;0.73;0.70;;;17.40;86.60;;;21.34;42.85;93107.88;6110000;19;20018;-65
2021/11/03 04:46:47;;;;;;;0.68;0.60;;;17.40;86.10;;;21.34;43.23;93110.59;6106220;19;20034;-65
2021/11/03 04:48:51;;;;;;;1.17;0.75;;;17.40;86.10;;;21.34;42.67;93105.16;6111398;19;20018;-65
2021/11/03 04:50:52;;;;;;;1.13;0.87;;;17.40;86.40;;;21.35;43.06;93105.94;6111005;19;20089;-65
2021/11/03 04:52:56;;;;;;;1.75;0.60;;;17.40;86.50;;;21.35;43.04;93100.53;6110011;19;20366;-65
2021/11/03 04:54:58;;;;;;;1.02;0.70;;;17.40;86.50;;;21.35;43.01;93103.25;6111416;19;20035;-65
2021/11/03 04:57:00;;;;;;;0.50;0.50;;;17.40;86.50;;;21.35;43.33;93106.72;6113381;19;20045;-65
2021/11/03 04:59:03;;;;;;;0.80;0.70;;;17.40;86.60;;;21.36;43.42;93096.66;6112728;19;20014;-66
2021/11/03 05:01:07;;;;;;;0.60;0.60;;;17.40;86.60;;;21.35;43.27;93095.91;6112282;19;20010;-66
2021/11/03 05:03:08;;;;;;;0.80;0.80;;;17.40;86.70;;;21.35;43.15;93106.72;6112307;19;20031;-65
2021/11/03 05:05:10;;;;;;;0.68;0.60;;;17.50;86.90;;;21.35;42.80;93101.31;6114689;19;20006;-66
2021/11/03 05:07:12;;;;;;;0.55;0.50;;;17.50;87.00;;;21.35;43.11;93095.91;6111413;19;20011;-66
2021/11/03 05:09:16;;;;;;;0.60;0.60;;;17.50;87.00;;;21.35;43.18;93087.75;6109804;19;20007;-65
2021/11/03 05:11:18;;;;;;;0.50;0.50;;;17.50;87.00;;;21.36;43.11;93094.75;6109131;19;20366;-65
2021/11/03 05:13:19;;;;;;;0.60;0.60;;;17.50;87.00;;;21.36;43.35;93088.53;6109012;19;20018;-66
2021/11/03 05:15:21;;;;;;;1.02;0.50;;;17.50;87.10;;;21.37;43.23;93098.22;6110383;19;20018;-65
2021/11/03 05:17:23;;;;;;;0.52;0.52;;;17.40;87.00;;;21.36;43.11;93083.91;6112147;19;20075;-66
2021/11/03 05:19:30;;;;;;;1.02;0.80;;;17.50;87.20;;;21.37;43.21;93076.56;6113868;19;20371;-65
2021/11/03 05:21:55;;;;;;;0.50;0.50;;;17.50;87.10;;;21.35;43.08;93068.78;6115057;19;20078;-65
2021/11/03 05:23:56;;;;;;;0.70;0.70;;;17.50;87.20;;;21.36;43.00;93075.00;6112575;19;20014;-65
2021/11/03 05:25:57;;;;;;;0.60;0.60;;;17.50;87.10;;;21.36;43.36;93075.78;6113398;19;20389;-65
2021/11/03 05:27:59;;;;;;;0.88;0.70;;;17.50;87.10;;;21.37;43.19;93069.19;6114668;19;20017;-66
2021/11/03 05:30:00;;;;;;;0.55;0.55;;;17.50;87.10;;;21.37;43.19;93069.19;6112229;19;20039;-65
2021/11/03 05:32:01;;;;;;;0.60;0.60;;;17.50;87.20;;;21.37;43.27;93060.28;6110672;19;20010;-65
2021/11/03 05:34:02;;;;;;;0.60;0.60;;;17.50;87.10;;;21.37;43.13;93066.50;6108041;19;20645;-65
2021/11/03 05:36:03;;;;;;;0.60;0.60;;;17.50;87.10;;;21.37;43.06;93063.78;6109807;19;20015;-65
2021/11/03 05:38:04;;;;;;;0.80;0.80;;;17.50;87.10;;;21.37;43.05;93061.06;6109557;19;20046;-65
2021/11/03 05:40:11;;;;;;;0.90;0.82;;;17.40;87.00;;;21.37;43.26;93063.00;6107610;19;20630;-65
2021/11/03 05:42:13;;;;;;;0.50;0.50;;;17.50;87.10;;;21.37;43.48;93060.28;6109490;19;20506;-65
2021/11/03 05:44:18;;;;;;;1.25;0.60;;;17.50;87.10;;;21.37;43.18;93061.06;6098968;19;20349;-66
2021/11/03 05:46:34;;;;;;;1.48;0.65;;;17.50;87.10;;;21.38;43.17;93056.44;6102497;19;20028;-66
2021/11/03 05:48:37;;;;;;;6.63;0.80;;;17.50;87.20;;;21.36;42.84;93043.25;6107604;19;20380;-66
2021/11/03 05:50:39;;;;;;;0.65;0.60;;;17.40;87.10;;;21.36;43.33;93037.81;6103069;19;20332;-66
2021/11/03 05:52:40;;;;;;;0.68;0.68;;;17.40;87.10;;;21.35;43.17;93038.19;6095748;19;20375;-65
2021/11/03 05:54:41;;;;;;;1.17;0.70;;;17.40;87.20;;;21.35;43.12;93028.13;6097424;19;20031;-65
2021/11/03 05:56:42;;;;;;;0.93;0.50;;;17.40;87.30;;;21.34;43.31;93029.28;6100382;19;20531;-65
2021/11/03 05:58:43;;;;;;;0.82;0.52;;;17.40;87.30;;;21.34;43.13;93032.00;6106267;19;20026;-65
2021/11/03 06:00:44;;;;;;;1.90;0.50;;;17.40;87.30;;;21.34;42.91;93031.22;6105535;19;20011;-66
2021/11/03 06:02:45;;;;;;;0.43;0.43;;;17.40;87.40;;;21.33;43.31;93021.53;6110373;19;20018;-66
2021/11/03 06:04:46;;;;;;;2.58;0.50;;;17.40;87.40;;;21.32;43.16;93028.09;6106608;19;20070;-65
2021/11/03 06:06:47;;;;;;;2.92;0.68;;;17.40;87.40;;;21.32;43.42;93019.97;6110717;19;20099;-65
2021/11/03 06:08:52;;;;;;;0.60;0.60;;;17.40;87.40;;;21.32;43.23;93025.38;6105420;19;20366;-65
2021/11/03 06:10:55;;;;;;;4.03;0.50;;;17.40;87.40;;;21.31;43.25;93018.41;6109323;19;20068;-65
2021/11/03 06:12:56;;;;;;;;;;;17.40;87.50;;;21.32;43.25;93020.75;6108799;19;20046;-65
2021/11/03 06:14:57;;;;;;;2.60;0.70;;;17.40;87.40;;;21.32;43.29;93014.53;6107556;19;20562;-65
2021/11/03 06:16:58;;;;;;;1.63;0.60;;;17.40;87.50;;;21.31;43.02;93012.97;6109613;19;20383;-65
2021/11/03 06:18:59;;;;;;;2.00;0.75;;;17.40;87.50;;;21.30;43.01;93017.63;6109285;19;20028;-66
2021/11/03 06:21:00;;;;;;;1.52;0.60;;;17.40;87.40;;;21.32;43.04;93022.66;6112203;19;20042;-66
2021/11/03 06:23:00;;;;;;;0.95;0.60;;;17.40;87.50;;;21.32;42.95;93026.16;6109648;19;20018;-66
2021/11/03 06:25:04;;;;;;;0.70;0.63;;;17.40;87.60;;;21.32;43.14;93014.53;6078463;19;20940;-66
2021/11/03 06:27:05;;;;;;;0.75;0.60;;;17.40;87.70;;;21.32;43.25;93018.03;6068067;19;20030;-65
2021/11/03 06:29:07;;;;;;;0.93;0.80;;;17.40;87.60;;;21.33;43.47;93016.09;6065738;19;20511;-65
2021/11/03 06:31:08;;;;;;;0.70;0.55;;;17.40;87.70;;;21.32;43.01;93023.44;6058313;19;20006;-65
2021/11/03 06:33:09;;;;;;;0.70;0.70;;;17.40;87.70;;;21.34;43.34;93020.38;6020355;19;21063;-65
2021/11/03 06:35:10;;;;;;;0.70;0.55;;;17.40;87.70;;;21.35;43.30;93011.88;6027096;19;20052;-65
2021/11/03 06:37:11;;;;;;;0.60;0.50;;;17.40;87.70;;;21.36;43.34;93009.94;6027847;19;20006;-65
2021/11/03 06:39:12;;;;;;;0.65;0.50;;;17.40;87.70;;;21.36;43.08;93010.72;6028684;19;20041;-65
2021/11/03 06:41:15;;;;;;;0.70;0.70;;;17.40;87.70;;;21.37;42.92;93017.69;6023400;19;20014;-65
2021/11/03 06:43:17;;;;;;;0.57;0.50;;;17.40;87.60;;;21.38;43.13;93016.56;6021970;19;20018;-65
2021/11/03 06:45:18;;;;;;;2.40;0.60;;;17.40;87.60;;;21.39;43.18;93026.25;6025111;19;20010;-65
2021/11/03 06:47:20;;;;;;;0.60;0.60;;;17.50;87.70;;;21.39;43.22;93026.25;6035494;19;20017;-65
2021/11/03 06:49:21;;;;;;;0.80;0.70;;;17.40;87.50;;;21.39;42.95;93020.81;6040773;19;20010;-65
2021/11/03 06:51:22;;;;;;;0.70;0.70;;;17.50;87.60;;;21.39;43.27;93025.47;6015337;19;21665;-65
2021/11/03 06:53:25;;;;;;;0.60;0.57;;;17.50;87.60;;;21.39;43.24;93015.41;6024311;19;20014;-65
2021/11/03 06:55:27;;;;;;;;;;;17.50;87.50;;;21.40;43.10;93022.38;6060930;19;20649;-65
2021/11/03 06:57:28;;;;;;;1.05;0.68;;;17.50;87.50;;;21.39;42.91;93014.63;6051158;19;20059;-66
2021/11/03 06:59:29;;;;;;;0.80;0.70;;;17.40;87.40;;;21.38;43.24;93021.97;6055588;19;20041;-65
2021/11/03 07:01:30;;;;;;;0.80;0.68;;;17.40;87.40;;;21.39;43.10;93012.69;6065082;19;20413;-65
2021/11/03 07:03:32;;;;;;;0.60;0.60;;;17.50;87.50;;;21.40;42.89;93011.53;6061936;19;20022;-65
2021/11/03 07:05:35;;;;;;;1.98;1.13;;;17.40;87.30;;;21.39;43.33;93011.91;6078511;19;20011;-65
2021/11/03 07:07:36;;;;;;;;;;;17.40;87.40;;;21.38;43.13;93013.84;6112196;19;20123;-65
2021/11/03 07:09:37;;;;;;;0.75;0.75;;;17.40;87.30;;;21.37;42.96;93016.91;6105534;19;19934;-65
2021/11/03 07:11:38;;;;;;;1.05;0.95;;;17.40;87.30;;;21.36;43.26;93004.50;6109826;19;20022;-65
2021/11/03 07:13:39;;;;;;;0.98;0.90;;;17.40;87.30;;;21.35;43.09;93008.38;6106080;19;20039;-65
2021/11/03 07:15:40;;;;;;;1.20;0.90;;;17.40;87.30;;;21.35;43.00;93006.44;6098626;19;20037;-65
2021/11/03 07:17:41;;;;;;;2.83;1.10;;;17.40;87.30;;;21.35;42.92;93003.75;6089743;19;20010;-65
2021/11/03 07:19:43;;;;;;;5.25;1.10;;;17.40;87.20;;;21.35;43.28;92995.59;6093204;19;20057;-65
2021/11/03 07:21:44;;;;;;;2.33;1.17;;;17.50;87.30;;;21.35;43.08;92995.59;6096654;19;20018;-65
2021/11/03 07:23:45;;;;;;;1.60;1.10;;;17.50;87.30;;;21.34;43.21;92999.47;6106173;19;20010;-65
2021/11/03 07:25:46;;;;;;;1.20;0.98;;;17.40;87.10;;;21.34;43.43;92995.97;6103923;19;20022;-66
2021/11/03 07:27:50;;;;;;;1.25;1.15;;;17.50;87.20;;;21.34;42.90;93006.81;6102343;19;20007;-66
2021/11/03 07:29:51;;;;;;;0.95;0.90;;;17.40;87.10;;;21.33;42.90;93003.31;6103426;19;20010;-66
2021/11/03 07:31:52;;;;;;;1.65;1.20;;;17.40;87.10;;;21.33;43.05;93003.31;6103990;19;20262;-65
2021/11/03 07:33:53;;;;;;;1.40;1.30;;;17.40;87.10;;;21.32;43.26;92996.34;6104384;19;20022;-65
2021/11/03 07:35:53;;;;;;;3.00;1.48;;;17.40;87.10;;;21.33;43.12;92999.84;6096035;19;20006;-66
2021/11/03 07:37:56;;;;;;;1.70;1.20;;;17.50;87.10;;;21.33;43.32;92989.78;6095612;19;20078;-65
2021/11/03 07:39:57;;;;;;;2.85;1.50;;;17.40;87.10;;;21.32;43.13;92988.22;6096977;19;20031;-65
2021/11/03 07:41:58;;;;;;;1.45;1.20;;;17.40;87.00;;;21.33;43.28;92981.66;6094056;19;20206;-65
2021/11/03 07:44:07;;;;;;;1.80;1.25;;;17.50;87.20;;;21.33;43.22;92983.56;6088295;19;20011;-65
2021/11/03 07:46:07;;;;;;;1.35;1.25;;;17.50;87.10;;;21.33;43.29;92989.00;6085721;19;20034;-65
2021/11/03 07:48:09;;;;;;;1.40;1.30;;;17.50;87.10;;;21.34;43.20;92995.97;6080936;19;20409;-65
2021/11/03 07:50:16;;;;;;;1.27;1.17;;;17.40;87.10;;;21.33;43.14;92992.47;6082524;19;20014;-65
2021/11/03 07:52:17;;;;;;;1.70;1.60;;;17.50;87.30;;;21.34;43.23;92990.56;6073463;19;20080;-65
2021/11/03 07:54:18;;;;;;;1.50;1.40;;;17.50;88.00;;;21.34;43.27;92980.50;6090422;19;20010;-62
2021/11/03 07:56:22;;;;;;;1.33;1.23;;;17.40;87.30;;;21.35;43.19;92986.69;6107308;19;20381;-62
2021/11/03 07:58:26;;;;;;;2.88;1.60;;;17.50;87.40;;;21.35;43.44;92983.97;6102286;19;20784;-63
2021/11/03 08:00:35;;;;;;;1.40;1.30;;;17.50;87.40;;;21.35;43.27;92987.47;6106835;19;20032;-62
2021/11/03 08:02:36;;;;;;;1.40;1.30;;;17.50;87.70;;;21.35;43.03;92992.91;6103561;19;20832;-62
2021/11/03 08:04:37;;;;;;;1.17;1.08;;;17.50;87.40;;;21.37;43.00;92974.34;6104133;19;20030;-62
2021/11/03 08:06:39;;;;;;;1.58;1.48;;;17.50;87.30;;;21.38;43.31;92988.66;6107485;19;20009;-62
2021/11/03 08:08:45;;;;;;;1.75;1.65;;;17.50;87.30;;;21.38;43.31;92984.03;6103651;19;20018;-62
2021/11/03 08:10:48;;;;;;;1.38;1.27;;;17.50;87.30;;;21.38;43.46;92981.31;6100929;19;20018;-62
2021/11/03 08:12:51;;;;;;;1.48;1.38;;;17.50;87.30;;;21.39;43.19;92985.59;6105472;19;20459;-62
2021/11/03 08:14:52;;;;;;;1.67;1.58;;;17.50;87.30;;;21.40;43.41;92998.00;6095508;19;20391;-61
2021/11/03 08:17:01;;;;;;;1.60;1.50;;;17.50;87.30;;;21.40;43.42;92984.44;6108744;19;20033;-62
2021/11/03 08:19:02;;;;;;;2.10;1.90;;;17.50;87.10;;;21.40;43.07;92978.22;6106101;19;20395;-62
2021/11/03 08:21:05;;;;;;;1.88;1.67;;;17.50;87.00;;;21.40;43.39;92976.31;6101052;19;20023;-62
2021/11/03 08:23:07;;;;;;;1.70;1.60;;;17.60;87.10;;;21.42;43.15;92974.00;6101115;19;20010;-60
2021/11/03 08:25:08;;;;;;;1.90;1.73;;;17.60;87.80;;;21.41;43.12;92963.53;6102934;19;20014;-62
2021/11/03 08:27:09;;;;;;;3.10;1.67;;;17.60;87.00;;;21.41;43.38;92971.66;6104350;19;20048;-63
2021/11/03 08:29:10;;;;;;;2.05;1.95;;;17.50;86.90;;;21.41;43.24;92972.44;6104429;19;20010;-62
2021/11/03 08:31:14;;;;;;;1.70;1.55;;;17.60;86.90;;;21.42;43.07;92975.94;6104016;19;20475;-61
2021/11/03 08:33:29;;;;;;;1.50;1.40;;;17.60;86.90;;;21.40;43.29;92968.16;6101793;19;20350;-62
2021/11/03 08:35:31;;;;;;;1.80;1.70;;;17.60;86.90;;;21.41;43.00;92969.72;6103375;19;20028;-61
2021/11/03 08:37:35;;;;;;;1.42;1.33;;;17.60;86.80;;;21.42;43.29;92970.50;6107239;19;20018;-62
2021/11/03 08:39:40;;;;;;;1.65;1.55;;;17.60;86.90;;;21.42;42.88;92973.22;6103140;19;20111;-63